createdAt,value
2022-10-09T00:01:23.290Z,98.28
2022-10-09T00:03:52.081Z,97.50
2022-10-09T00:06:31.260Z,96.20
2022-10-09T00:08:58.838Z,95.19
2022-10-09T00:11:27.649Z,95.30
2022-10-09T00:13:55.659Z,96.14
2022-10-09T00:16:22.893Z,97.67
2022-10-09T00:18:49.851Z,98.40
2022-10-09T00:21:28.821Z,98.10
2022-10-09T00:23:57.871Z,97.96
2022-10-09T00:26:25.106Z,97.68
2022-10-09T00:28:51.623Z,96.48
2022-10-09T00:31:19.116Z,97.63
2022-10-09T00:33:46.159Z,97.75
2022-10-09T00:36:16.048Z,98.96
2022-10-09T00:38:42.842Z,98.45
2022-10-09T00:41:14.098Z,100.00
2022-10-09T00:43:43.204Z,100.00
2022-10-09T00:46:34.945Z,100.00
2022-10-09T00:49:27.887Z,100.00
2022-10-09T00:51:57.161Z,100.00
2022-10-09T00:54:27.178Z,99.35
2022-10-09T00:56:54.790Z,98.40
2022-10-09T00:59:21.749Z,99.20
2022-10-09T01:01:48.348Z,98.53
2022-10-09T01:04:15.017Z,99.84
2022-10-09T01:06:59.539Z,97.01
2022-10-09T01:09:53.892Z,96.21
2022-10-09T01:12:35.510Z,97.47
2022-10-09T01:15:08.441Z,96.45
2022-10-09T01:17:45.318Z,96.58
2022-10-09T01:20:23.509Z,96.08
2022-10-09T01:22:55.940Z,96.10
2022-10-09T01:26:04.259Z,96.38
2022-10-09T01:28:31.298Z,97.08
2022-10-09T01:30:59.988Z,97.77
2022-10-09T01:33:26.912Z,96.44
2022-10-09T01:35:53.686Z,96.43
2022-10-09T01:38:23.253Z,95.77
2022-10-09T01:40:52.375Z,97.36
2022-10-09T01:43:19.355Z,97.07
2022-10-09T01:45:47.745Z,97.47
2022-10-09T01:48:21.893Z,98.38
2022-10-09T01:50:54.401Z,98.53
2022-10-09T01:53:21.602Z,98.62
2022-10-09T01:55:56.424Z,97.23
2022-10-09T01:58:35.065Z,97.46
2022-10-09T02:01:13.829Z,95.89
2022-10-09T02:03:42.925Z,95.06
2022-10-09T02:06:13.181Z,94.30
2022-10-09T02:08:41.480Z,95.62
2022-10-09T02:11:08.366Z,97.73
2022-10-09T02:13:35.876Z,98.98
2022-10-09T02:16:22.333Z,97.97
2022-10-09T02:18:55.972Z,98.64
2022-10-09T02:21:26.936Z,99.53
2022-10-09T02:23:57.663Z,100.00
2022-10-09T02:26:24.931Z,100.00
2022-10-09T02:28:51.566Z,99.56
2022-10-09T02:31:25.697Z,99.38
2022-10-09T02:34:00.715Z,99.38
2022-10-09T02:36:28.714Z,100.00
2022-10-09T02:38:56.465Z,100.00
2022-10-09T02:41:23.814Z,97.32
2022-10-09T02:43:50.787Z,97.43
2022-10-09T02:46:17.957Z,97.84
2022-10-09T02:48:44.985Z,98.42
2022-10-09T02:51:11.569Z,99.09
2022-10-09T02:53:38.061Z,100.00
2022-10-09T02:56:04.587Z,100.00
2022-10-09T02:58:32.532Z,100.00
2022-10-09T03:00:59.090Z,100.00
2022-10-09T03:03:26.123Z,100.00
2022-10-09T03:06:22.714Z,100.00
2022-10-09T03:08:50.615Z,100.00
2022-10-09T03:11:19.041Z,100.00
2022-10-09T03:13:45.819Z,100.00
2022-10-09T03:16:15.063Z,100.00
2022-10-09T03:18:41.642Z,100.00
2022-10-09T03:21:09.637Z,100.00
2022-10-09T03:23:36.405Z,100.00
2022-10-09T03:26:06.769Z,100.00
2022-10-09T03:28:36.228Z,100.00
2022-10-09T03:31:04.019Z,100.00
2022-10-09T03:33:30.640Z,100.00
2022-10-09T03:35:57.155Z,100.00
2022-10-09T03:38:23.619Z,100.00
2022-10-09T03:40:50.016Z,100.00
2022-10-09T03:43:16.431Z,100.00
2022-10-09T03:45:43.322Z,100.00
2022-10-09T03:48:11.314Z,100.00
2022-10-09T03:50:41.143Z,100.00
2022-10-09T03:53:09.024Z,100.00
2022-10-09T03:55:35.656Z,100.00
2022-10-09T03:58:02.180Z,100.00
2022-10-09T04:00:29.171Z,100.00
2022-10-09T04:02:55.644Z,100.00
2022-10-09T04:05:22.449Z,100.00
2022-10-09T04:07:49.122Z,100.00
2022-10-09T04:10:15.682Z,100.00
2022-10-09T04:12:42.442Z,98.25
2022-10-09T04:15:09.811Z,99.91
2022-10-09T04:17:36.544Z,100.00
2022-10-09T04:20:03.546Z,99.25
2022-10-09T04:22:30.020Z,100.00
2022-10-09T04:24:56.422Z,98.70
2022-10-09T04:27:22.809Z,98.80
2022-10-09T04:29:49.250Z,98.22
2022-10-09T04:32:15.636Z,97.52
2022-10-09T04:34:42.034Z,98.04
2022-10-09T04:37:08.468Z,98.11
2022-10-09T04:39:34.835Z,98.16
2022-10-09T04:42:01.238Z,99.43
2022-10-09T04:44:27.660Z,99.55
2022-10-09T04:46:54.063Z,99.43
2022-10-09T04:49:20.470Z,98.85
2022-10-09T04:51:46.958Z,98.03
2022-10-09T04:54:13.598Z,98.03
2022-10-09T04:56:40.006Z,98.48
2022-10-09T04:59:06.404Z,98.57
2022-10-09T05:01:37.837Z,97.20
2022-10-09T05:04:04.807Z,95.92
2022-10-09T05:06:31.578Z,96.71
2022-10-09T05:08:58.027Z,96.98
2022-10-09T05:11:25.981Z,97.53
2022-10-09T05:13:54.879Z,97.47
2022-10-09T05:16:25.682Z,98.39
2022-10-09T05:18:55.339Z,96.29
2022-10-09T05:21:22.546Z,96.82
2022-10-09T05:23:49.432Z,97.97
2022-10-09T05:26:20.705Z,99.47
2022-10-09T05:28:48.055Z,99.43
2022-10-09T05:31:26.449Z,100.00
2022-10-09T05:33:53.805Z,100.00
2022-10-09T05:36:20.732Z,100.00
2022-10-09T05:38:47.864Z,100.00
2022-10-09T05:41:16.354Z,100.00
2022-10-09T05:43:44.914Z,100.00
2022-10-09T05:46:14.601Z,100.00
2022-10-09T05:48:43.584Z,100.00
2022-10-09T05:51:19.871Z,100.00
2022-10-09T05:53:47.476Z,100.00
2022-10-09T05:56:21.345Z,100.00
2022-10-09T05:59:09.080Z,100.00
2022-10-09T06:01:41.022Z,100.00
2022-10-09T06:04:10.939Z,100.00
2022-10-09T06:06:39.267Z,100.00
2022-10-09T06:09:07.644Z,100.00
2022-10-09T06:11:36.920Z,100.00
2022-10-09T06:14:11.306Z,100.00
2022-10-09T06:16:40.305Z,99.56
2022-10-09T06:19:08.130Z,100.00
2022-10-09T06:21:35.128Z,99.16
2022-10-09T06:24:04.300Z,99.06
2022-10-09T06:26:31.806Z,99.12
2022-10-09T06:29:00.837Z,97.89
2022-10-09T06:31:32.423Z,97.46
2022-10-09T06:34:00.529Z,97.04
2022-10-09T06:36:33.035Z,96.92
2022-10-09T06:39:01.445Z,93.94
2022-10-09T06:41:29.563Z,93.73
2022-10-09T06:44:00.220Z,90.75
2022-10-09T06:46:29.877Z,90.85
2022-10-09T06:48:58.424Z,90.21
2022-10-09T06:51:25.544Z,85.44
2022-10-09T06:53:54.053Z,83.61
2022-10-09T06:56:22.435Z,83.62
2022-10-09T06:58:51.454Z,82.23
2022-10-09T07:01:19.180Z,83.20
2022-10-09T07:03:48.475Z,79.96
2022-10-09T07:06:20.305Z,79.39
2022-10-09T07:08:55.425Z,76.62
2022-10-09T07:11:43.199Z,76.01
2022-10-09T07:14:11.459Z,73.93
2022-10-09T07:16:40.638Z,73.68
2022-10-09T07:19:10.913Z,71.08
2022-10-09T07:21:39.539Z,71.67
2022-10-09T07:24:06.448Z,69.34
2022-10-09T07:26:35.625Z,69.01
2022-10-09T07:29:02.650Z,67.08
2022-10-09T07:31:29.185Z,69.73
2022-10-09T07:33:58.447Z,68.70
2022-10-09T07:36:25.855Z,68.53
2022-10-09T07:38:54.572Z,67.14
2022-10-09T07:41:22.105Z,65.68
2022-10-09T07:43:48.745Z,65.18
2022-10-09T07:46:17.568Z,66.82
2022-10-09T07:48:44.921Z,67.70
2022-10-09T07:51:19.004Z,65.68
2022-10-09T07:53:46.132Z,63.78
2022-10-09T07:56:24.002Z,65.61
2022-10-09T07:58:55.068Z,67.06
2022-10-09T08:01:22.936Z,65.45
2022-10-09T08:03:50.038Z,63.93
2022-10-09T08:06:18.154Z,63.92
2022-10-09T08:08:45.153Z,61.01
2022-10-09T08:11:16.335Z,61.45
2022-10-09T08:13:44.636Z,62.75
2022-10-09T08:16:11.480Z,60.15
2022-10-09T08:18:38.113Z,61.27
2022-10-09T08:21:07.968Z,60.05
2022-10-09T08:23:34.659Z,57.94
2022-10-09T08:26:01.255Z,61.85
2022-10-09T08:28:27.787Z,58.85
2022-10-09T08:30:54.275Z,61.87
2022-10-09T08:33:22.111Z,59.85
2022-10-09T08:35:52.097Z,59.30
2022-10-09T08:38:44.784Z,60.54
2022-10-09T08:41:11.747Z,60.18
2022-10-09T08:43:42.620Z,60.81
2022-10-09T08:46:51.647Z,59.96
2022-10-09T08:49:34.641Z,60.51
2022-10-09T08:52:21.449Z,56.45
2022-10-09T08:54:48.089Z,55.23
2022-10-09T08:57:16.581Z,50.89
2022-10-09T08:59:44.240Z,52.59
2022-10-09T09:02:41.077Z,52.20
2022-10-09T09:05:27.762Z,49.78
2022-10-09T09:08:19.815Z,49.89
2022-10-09T09:11:03.749Z,49.29
2022-10-09T09:13:45.518Z,50.56
2022-10-09T09:16:37.625Z,48.16
2022-10-09T09:19:20.696Z,48.78
2022-10-09T09:21:51.648Z,49.26
2022-10-09T09:24:35.684Z,48.72
2022-10-09T09:27:10.222Z,48.30
2022-10-09T09:29:42.811Z,49.09
2022-10-09T09:32:17.764Z,48.36
2022-10-09T09:34:44.569Z,48.51
2022-10-09T09:37:12.189Z,48.48
2022-10-09T09:42:25.344Z,49.76
2022-10-09T09:45:00.201Z,50.19
2022-10-09T09:47:34.450Z,50.23
2022-10-09T09:50:03.380Z,50.39
2022-10-09T09:52:34.742Z,49.85
2022-10-09T09:55:01.270Z,50.47
2022-10-09T09:57:39.091Z,49.07
2022-10-09T10:00:23.838Z,50.80
2022-10-09T10:03:01.198Z,50.21
2022-10-09T10:05:27.789Z,51.08
2022-10-09T10:07:54.301Z,51.44
2022-10-09T10:10:25.650Z,51.29
2022-10-09T10:12:52.760Z,52.68
2022-10-09T10:15:29.247Z,52.54
2022-10-09T10:18:02.087Z,53.11
2022-10-09T10:20:32.069Z,51.85
2022-10-09T10:22:59.854Z,51.42
2022-10-09T10:25:32.451Z,52.86
2022-10-09T10:28:13.282Z,53.58
2022-10-09T10:30:40.346Z,53.89
2022-10-09T10:33:29.008Z,52.77
2022-10-09T10:35:57.687Z,53.52
2022-10-09T10:38:39.395Z,53.55
2022-10-09T10:41:30.396Z,52.04
2022-10-09T10:44:15.658Z,52.01
2022-10-09T10:46:49.553Z,51.91
2022-10-09T10:49:20.306Z,52.18
2022-10-09T10:52:04.301Z,51.88
2022-10-09T10:54:37.641Z,50.22
2022-10-09T10:57:22.983Z,52.16
2022-10-09T11:00:09.484Z,51.21
2022-10-09T11:02:42.397Z,51.99
2022-10-09T11:05:26.897Z,51.66
2022-10-09T11:08:02.641Z,49.90
2022-10-09T11:11:10.721Z,50.13
2022-10-09T11:13:56.180Z,50.52
2022-10-09T11:16:22.619Z,50.00
2022-10-09T11:19:11.303Z,49.73
2022-10-09T11:21:47.707Z,50.26
2022-10-09T11:24:14.067Z,51.00
2022-10-09T11:27:06.236Z,51.43
2022-10-09T11:29:45.188Z,51.48
2022-10-09T11:32:24.295Z,51.51
2022-10-09T11:34:58.292Z,51.72
2022-10-09T11:37:30.144Z,51.25
2022-10-09T11:39:56.888Z,51.37
2022-10-09T11:42:25.488Z,51.69
2022-10-09T12:11:19.357Z,52.84
2022-10-09T12:13:55.634Z,51.61
2022-10-09T12:16:30.129Z,50.09
2022-10-09T12:18:58.932Z,48.54
2022-10-09T12:21:31.553Z,47.74
2022-10-09T12:23:58.449Z,48.69
2022-10-09T12:26:25.572Z,49.02
2022-10-09T12:28:56.284Z,48.38
2022-10-09T12:31:41.666Z,47.72
2022-10-09T12:34:27.843Z,48.81
2022-10-09T12:37:31.584Z,49.94
2022-10-09T12:40:08.068Z,48.92
2022-10-09T12:42:34.542Z,49.07
2022-10-09T12:45:01.743Z,48.82
2022-10-09T12:47:29.857Z,49.51
2022-10-09T12:49:58.747Z,49.75
2022-10-09T12:52:25.239Z,49.24
2022-10-09T12:54:51.665Z,49.15
2022-10-09T12:57:19.677Z,48.40
2022-10-09T12:59:49.559Z,48.30
2022-10-09T13:02:19.885Z,48.45
2022-10-09T13:04:58.632Z,48.25
2022-10-09T13:07:26.978Z,48.39
2022-10-09T13:10:02.784Z,48.10
2022-10-09T13:12:31.042Z,48.34
2022-10-09T13:14:58.923Z,47.84
2022-10-09T13:20:12.774Z,48.52
2022-10-09T13:22:39.647Z,47.87
2022-10-09T13:25:06.741Z,48.25
2022-10-09T13:27:37.875Z,47.35
2022-10-09T13:30:06.093Z,47.25
2022-10-09T13:32:32.430Z,48.23
2022-10-09T13:34:58.814Z,48.06
2022-10-09T13:37:26.542Z,48.97
2022-10-09T13:39:57.482Z,48.18
2022-10-09T13:42:26.890Z,48.70
2022-10-09T13:44:53.459Z,49.84
2022-10-09T13:47:24.215Z,49.60
2022-10-09T13:49:51.500Z,48.64
2022-10-09T13:52:18.010Z,48.81
2022-10-09T13:54:45.165Z,48.60
2022-10-09T13:57:11.849Z,48.63
2022-10-09T13:59:38.392Z,48.55
2022-10-09T14:02:04.884Z,48.78
2022-10-09T14:04:31.520Z,47.82
2022-10-09T14:06:57.984Z,47.84
2022-10-09T14:09:24.483Z,46.34
2022-10-09T14:11:50.900Z,47.00
2022-10-09T14:14:17.333Z,46.59
2022-10-09T14:16:43.986Z,47.41
2022-10-09T14:19:10.756Z,47.87
2022-10-09T14:21:37.509Z,47.90
2022-10-09T14:24:04.500Z,47.67
2022-10-09T14:26:31.416Z,47.94
2022-10-09T14:29:02.805Z,48.06
2022-10-09T14:31:30.183Z,47.57
2022-10-09T14:33:58.638Z,47.97
2022-10-09T14:36:25.724Z,47.93
2022-10-09T14:38:52.471Z,47.50
2022-10-09T14:41:19.889Z,47.92
2022-10-09T14:43:47.929Z,48.22
2022-10-09T14:46:17.842Z,47.90
2022-10-09T14:48:45.896Z,48.05
2022-10-09T14:51:15.052Z,48.61
2022-10-09T14:53:42.010Z,48.95
2022-10-09T14:56:12.305Z,49.17
2022-10-09T14:58:40.013Z,49.79
2022-10-09T15:01:07.205Z,49.93
2022-10-09T15:03:35.163Z,49.79
2022-10-09T15:06:06.698Z,49.75
2022-10-09T15:08:35.036Z,50.75
2022-10-09T15:11:02.498Z,50.50
2022-10-09T15:13:29.432Z,50.54
2022-10-09T15:16:14.005Z,50.37
2022-10-09T15:18:41.050Z,50.48
2022-10-09T15:21:13.121Z,50.72
2022-10-09T15:23:40.175Z,50.76
2022-10-09T15:26:06.836Z,50.96
2022-10-09T15:28:33.326Z,51.36
2022-10-09T15:31:01.150Z,50.90
2022-10-09T15:33:27.620Z,51.16
2022-10-09T15:35:54.014Z,51.17
2022-10-09T15:38:22.221Z,50.35
2022-10-09T15:40:51.502Z,50.67
2022-10-09T15:43:19.998Z,50.40
2022-10-09T15:45:47.377Z,50.06
2022-10-09T15:48:16.528Z,50.27
2022-10-09T15:50:46.257Z,50.12
2022-10-09T15:53:14.945Z,49.74
2022-10-09T15:55:45.861Z,50.08
2022-10-09T15:58:13.247Z,50.71
2022-10-09T16:00:41.910Z,50.93
2022-10-09T16:03:08.943Z,50.68
2022-10-09T16:05:44.241Z,51.13
2022-10-09T16:08:12.079Z,50.31
2022-10-09T16:10:49.047Z,50.60
2022-10-09T16:13:16.357Z,50.54
2022-10-09T16:15:49.644Z,51.38
2022-10-09T16:18:18.252Z,51.11
2022-10-09T16:20:45.031Z,51.53
2022-10-09T16:23:12.338Z,51.94
2022-10-09T16:25:39.734Z,52.12
2022-10-09T16:28:08.537Z,51.97
2022-10-09T16:30:42.850Z,52.86
2022-10-09T16:33:12.616Z,53.98
2022-10-09T16:35:39.535Z,54.16
2022-10-09T16:38:06.494Z,55.98
2022-10-09T16:40:57.471Z,56.79
2022-10-09T16:43:20.136Z,57.90
2022-10-09T16:45:46.571Z,59.36
2022-10-09T16:48:12.957Z,60.54
2022-10-09T16:50:41.313Z,60.56
2022-10-09T16:53:07.752Z,61.55
2022-10-09T16:55:34.409Z,62.31
2022-10-09T16:58:00.890Z,63.38
2022-10-09T17:00:27.524Z,64.06
2022-10-09T17:02:54.023Z,63.92
2022-10-09T17:05:20.570Z,65.00
2022-10-09T17:07:47.300Z,65.84
2022-10-09T17:10:13.940Z,66.70
2022-10-09T17:12:40.308Z,67.83
2022-10-09T17:15:07.227Z,68.63
2022-10-09T17:17:33.783Z,69.40
2022-10-09T17:20:00.215Z,69.59
2022-10-09T17:22:26.604Z,70.10
2022-10-09T17:24:53.020Z,71.79
2022-10-09T17:27:19.499Z,72.40
2022-10-09T17:29:45.927Z,71.92
2022-10-09T17:32:12.347Z,73.32
2022-10-09T17:34:42.999Z,74.03
2022-10-09T17:37:09.397Z,74.73
2022-10-09T17:39:35.780Z,74.90
2022-10-09T17:42:02.192Z,74.36
2022-10-09T17:44:31.854Z,75.56
2022-10-09T17:46:58.310Z,75.96
2022-10-09T17:49:24.758Z,76.60
2022-10-09T17:51:52.653Z,77.00
2022-10-09T17:54:19.081Z,77.92
2022-10-09T17:56:45.606Z,77.74
2022-10-09T17:59:12.287Z,78.60
2022-10-09T18:01:39.108Z,78.37
2022-10-09T18:04:05.503Z,78.54
2022-10-09T18:06:33.478Z,79.41
2022-10-09T18:09:00.408Z,79.27
2022-10-09T18:11:28.449Z,79.76
2022-10-09T18:13:55.014Z,80.17
2022-10-09T18:16:31.380Z,79.68
2022-10-09T18:19:07.786Z,80.78
2022-10-09T18:21:35.300Z,80.73
2022-10-09T18:24:01.849Z,81.69
2022-10-09T18:26:28.349Z,82.52
2022-10-09T18:28:54.793Z,82.21
2022-10-09T18:31:23.592Z,82.04
2022-10-09T18:33:50.381Z,81.89
2022-10-09T18:36:19.740Z,81.97
2022-10-09T18:38:49.177Z,82.07
2022-10-09T18:41:16.505Z,81.66
2022-10-09T18:43:42.924Z,81.27
2022-10-09T18:46:09.600Z,80.24
2022-10-09T18:48:39.509Z,79.53
2022-10-09T18:51:09.027Z,78.40
2022-10-09T18:53:38.054Z,78.36
2022-10-09T18:56:06.307Z,76.81
2022-10-09T18:58:33.758Z,76.63
2022-10-09T19:01:03.322Z,76.88
2022-10-09T19:03:31.867Z,76.32
2022-10-09T19:05:58.264Z,74.73
2022-10-09T19:08:24.688Z,75.06
2022-10-09T19:10:52.904Z,74.86
2022-10-09T19:13:20.609Z,74.05
2022-10-09T19:15:55.253Z,74.15
2022-10-09T19:18:22.466Z,73.74
2022-10-09T19:20:49.471Z,73.10
2022-10-09T19:23:18.999Z,72.63
2022-10-09T19:25:53.184Z,71.97
2022-10-09T19:28:20.785Z,70.97
2022-10-09T19:30:48.222Z,71.03
2022-10-09T19:33:15.615Z,70.38
2022-10-09T19:36:00.176Z,70.04
2022-10-09T19:38:27.785Z,70.71
2022-10-09T19:40:54.373Z,70.82
2022-10-09T19:43:25.083Z,70.86
2022-10-09T19:46:09.521Z,70.59
2022-10-09T19:48:36.886Z,70.33
2022-10-09T19:51:08.771Z,70.52
2022-10-09T19:53:35.552Z,70.14
2022-10-09T19:56:02.898Z,70.61
2022-10-09T19:58:30.200Z,70.51
2022-10-09T20:00:56.612Z,70.90
2022-10-09T20:03:23.046Z,70.49
2022-10-09T20:05:49.439Z,69.77
2022-10-09T20:08:15.865Z,70.42
2022-10-09T20:10:42.262Z,70.26
2022-10-09T20:13:08.658Z,70.63
2022-10-09T20:15:35.011Z,71.00
2022-10-09T20:18:01.394Z,70.27
2022-10-09T20:20:28.012Z,70.75
2022-10-09T20:22:54.399Z,70.66
2022-10-09T20:25:20.934Z,70.33
2022-10-09T20:27:47.528Z,70.28
2022-10-09T20:30:13.946Z,70.68
2022-10-09T20:32:40.381Z,69.75
2022-10-09T20:35:07.343Z,69.93
2022-10-09T20:37:34.969Z,70.85
2022-10-09T20:40:01.723Z,71.80
2022-10-09T20:42:28.119Z,71.35
2022-10-09T20:44:54.511Z,70.92
2022-10-09T20:47:20.894Z,72.26
2022-10-09T20:49:48.182Z,70.61
2022-10-09T20:52:14.569Z,71.34
2022-10-09T20:54:40.953Z,71.54
2022-10-09T20:57:07.352Z,71.76
2022-10-09T20:59:33.805Z,72.42
2022-10-09T21:02:00.195Z,73.57
2022-10-09T21:04:26.582Z,74.07
2022-10-09T21:06:58.348Z,73.90
2022-10-09T21:09:27.477Z,74.27
2022-10-09T21:11:56.228Z,74.01
2022-10-09T21:14:22.644Z,75.25
2022-10-09T21:16:49.099Z,75.24
2022-10-09T21:19:15.945Z,75.19
2022-10-09T21:21:45.318Z,75.88
2022-10-09T21:24:13.930Z,75.55
2022-10-09T21:26:40.976Z,76.49
2022-10-09T21:29:07.471Z,76.57
2022-10-09T21:31:34.283Z,77.34
2022-10-09T21:34:11.916Z,76.90
2022-10-09T21:36:47.124Z,76.00
2022-10-09T21:39:25.080Z,76.99
2022-10-09T21:41:51.535Z,77.43
2022-10-09T21:44:17.984Z,78.03
2022-10-09T21:46:44.529Z,78.21
2022-10-09T21:49:22.946Z,77.92
2022-10-09T21:51:49.698Z,78.28
2022-10-09T21:54:16.634Z,78.93
2022-10-09T21:56:43.270Z,78.79
2022-10-09T21:59:09.974Z,78.86
2022-10-09T22:01:36.423Z,79.97
2022-10-09T22:04:02.952Z,80.11
2022-10-09T22:06:29.372Z,80.14
2022-10-09T22:08:55.959Z,80.65
2022-10-09T22:11:22.450Z,80.77
2022-10-09T22:13:49.090Z,80.05
2022-10-09T22:16:15.791Z,80.63
2022-10-09T22:18:42.565Z,81.28
2022-10-09T22:21:14.021Z,81.35
2022-10-09T22:23:41.232Z,81.72
2022-10-09T22:26:13.500Z,82.11
2022-10-09T22:28:39.947Z,82.12
2022-10-09T22:31:14.759Z,82.19
2022-10-09T22:33:41.791Z,82.26
2022-10-09T22:36:17.869Z,82.66
2022-10-09T22:38:44.650Z,83.20
2022-10-09T22:41:17.120Z,83.60
2022-10-09T22:43:49.038Z,83.87
2022-10-09T22:46:18.633Z,84.56
2022-10-09T22:48:47.213Z,83.96
2022-10-09T22:51:15.291Z,84.49
2022-10-09T22:53:43.139Z,84.98
2022-10-09T22:56:21.947Z,85.18
2022-10-09T22:58:51.717Z,85.59
2022-10-09T23:01:31.479Z,85.51
2022-10-09T23:03:59.948Z,86.08
2022-10-09T23:06:26.688Z,86.04
2022-10-09T23:08:53.520Z,85.61
2022-10-09T23:11:21.535Z,85.35
2022-10-09T23:13:53.973Z,85.38
2022-10-09T23:16:21.320Z,85.97
2022-10-09T23:18:52.642Z,85.82
2022-10-09T23:21:22.288Z,86.35
2022-10-09T23:23:50.053Z,86.30
2022-10-09T23:26:18.872Z,86.37
2022-10-09T23:28:55.962Z,86.42
2022-10-09T23:31:22.981Z,86.98
2022-10-09T23:33:49.403Z,87.41
2022-10-09T23:36:20.292Z,87.60
2022-10-09T23:38:47.426Z,88.21
2022-10-09T23:41:17.052Z,88.03
2022-10-09T23:43:45.219Z,87.47
2022-10-09T23:46:14.313Z,87.74
2022-10-09T23:48:41.298Z,88.12
2022-10-09T23:51:07.837Z,88.25
2022-10-09T23:53:34.505Z,88.46
2022-10-09T23:56:01.432Z,89.38
2022-10-09T23:58:27.931Z,89.05
